Noble, Ohio
Current Conditions -  °F | °C
As of 9:45 AM on Wednesday 22 Oct 2014 (Local Time) from KCGF Reporting Station
Overcast Overcast  
Wind Chill: 44°   Ceiling: 1400
Heat Index: 48°   Visibility: 10mi
Dew Point: 45°   Wind: 9mph
Humidity: 87%   Direction: 50°NE
Pressure: 30.25"   Gusts: NA
Location:  41.6046°N, 81.5°W
Report Text: KCGF 221345Z 05008KT 10SM BKN014 OVC035 09/07 A3025
Loading
Personal Weather Stations






























Interactive Weather Map
Tropical Storm Tracking
New forecast layout! Learn more

10-Day Weather Forecast

Advertisements
Track Severe Weather on mobile